Lamesa, Texas
Current Conditions -  °F | °C
As of 6:15 AM on Friday 24 Oct 2014 (Local Time) from KGNC Reporting Station
Clear Clear  
Wind Chill: 57°   Ceiling: Unl
Heat Index: 57°   Visibility: 7mi
Dew Point: 56°   Wind: 7mph
Humidity: 97%   Direction: 260°W
Pressure: 30.16"   Gusts: NA
Location:  32.74°N, 101.95°W
Report Text: KGNC 241115Z AUTO 26006KT 7SM CLR 14/13 A3016 RMK AO2 T01380134
Loading
Personal Weather Stations






























Interactive Weather Map
Tropical Storm Tracking
New forecast layout! Learn more

10-Day Weather Forecast

Advertisements
Track Severe Weather on mobile